LCPH/PFO METAR and TAF weather

Enter ICAO airport designator
Station Type Date Time Source
LCPH METAR 2020/09/19 00:00 UTC NOAA

LCPH 190000Z 33004KT CAVOK 24/20 Q1011


Station Type Date Time Source
LCPH Decoded METAR 2020/09/19 00:00 UTC NOAA

Paphos Airport, Cyprus (LCPH) 34-43N 032-29E 8M
Sep 18, 2020 - 08:00 PM EDT / 2020.09.19 0000 UTC
Wind: from the NNW (330 degrees) at 5 MPH (4 KT):0
Visibility: greater than 7 mile(s):0
Temperature: 75 F (24 C)
Dew Point: 68 F (20 C)
Relative Humidity: 78%
Pressure (altimeter): 29.85 in. Hg (1011 hPa)
ob: LCPH 190000Z 33004KT CAVOK 24/20 Q1011
cycle: 0

Station Type Date Time Source
LCPH TAF 2020/09/18 18:33 UTC NOAA

TAF LCPH 181730Z 1818/1918 34008KT 9999 FEW015 PROB30
TEMPO 1818/1905 BKN008
BECMG 1907/1909 28014KT
BECMG 1916/1918 34008KT

Example: see airport list